sensor_id;sensor_type;location;lat;lon;timestamp;P1;durP1;ratioP1;P2;durP2;ratioP2
68250;SDS011;55066;51.560;4.642;2024-02-14T00:02:07;15.60;;;7.07;;
68250;SDS011;55066;51.560;4.642;2024-02-14T00:04:33;20.33;;;8.00;;
68250;SDS011;55066;51.560;4.642;2024-02-14T00:07:02;14.90;;;7.35;;
68250;SDS011;55066;51.560;4.642;2024-02-14T00:09:29;17.85;;;7.25;;
68250;SDS011;55066;51.560;4.642;2024-02-14T00:12:01;19.35;;;7.75;;
68250;SDS011;55066;51.560;4.642;2024-02-14T00:14:28;19.77;;;7.30;;
68250;SDS011;55066;51.560;4.642;2024-02-14T00:16:54;14.73;;;7.03;;
68250;SDS011;55066;51.560;4.642;2024-02-14T00:19:19;19.00;;;8.50;;
68250;SDS011;55066;51.560;4.642;2024-02-14T00:21:45;17.97;;;8.07;;
68250;SDS011;55066;51.560;4.642;2024-02-14T00:24:12;16.02;;;7.65;;
68250;SDS011;55066;51.560;4.642;2024-02-14T00:26:41;15.60;;;7.20;;
68250;SDS011;55066;51.560;4.642;2024-02-14T00:29:23;17.38;;;7.95;;
68250;SDS011;55066;51.560;4.642;2024-02-14T00:31:52;16.42;;;7.60;;
68250;SDS011;55066;51.560;4.642;2024-02-14T00:34:23;15.70;;;7.50;;
68250;SDS011;55066;51.560;4.642;2024-02-14T00:37:10;15.65;;;7.57;;
68250;SDS011;55066;51.560;4.642;2024-02-14T00:39:36;18.05;;;8.13;;
68250;SDS011;55066;51.560;4.642;2024-02-14T00:42:02;14.87;;;7.27;;
68250;SDS011;55066;51.560;4.642;2024-02-14T00:44:27;16.87;;;7.50;;
68250;SDS011;55066;51.560;4.642;2024-02-14T00:46:56;16.95;;;8.13;;
68250;SDS011;55066;51.560;4.642;2024-02-14T00:49:27;15.87;;;7.40;;
68250;SDS011;55066;51.560;4.642;2024-02-14T00:51:55;17.50;;;7.45;;
68250;SDS011;55066;51.560;4.642;2024-02-14T00:54:23;16.90;;;8.00;;
68250;SDS011;55066;51.560;4.642;2024-02-14T00:56:49;16.45;;;7.22;;
68250;SDS011;55066;51.560;4.642;2024-02-14T00:59:20;15.83;;;6.90;;
68250;SDS011;55066;51.560;4.642;2024-02-14T01:01:48;16.25;;;7.43;;
68250;SDS011;55066;51.560;4.642;2024-02-14T01:04:18;15.73;;;7.30;;
68250;SDS011;55066;51.560;4.642;2024-02-14T01:06:48;17.50;;;7.30;;
68250;SDS011;55066;51.560;4.642;2024-02-14T01:09:17;13.57;;;6.03;;
68250;SDS011;55066;51.560;4.642;2024-02-14T01:11:47;14.52;;;6.80;;
68250;SDS011;55066;51.560;4.642;2024-02-14T01:14:14;12.73;;;5.68;;
68250;SDS011;55066;51.560;4.642;2024-02-14T01:16:42;17.13;;;6.55;;
68250;SDS011;55066;51.560;4.642;2024-02-14T01:19:10;14.50;;;6.53;;
68250;SDS011;55066;51.560;4.642;2024-02-14T01:21:45;15.88;;;6.80;;
68250;SDS011;55066;51.560;4.642;2024-02-14T01:24:18;14.43;;;6.37;;
68250;SDS011;55066;51.560;4.642;2024-02-14T01:26:45;15.48;;;6.97;;
68250;SDS011;55066;51.560;4.642;2024-02-14T01:29:12;16.42;;;6.55;;
68250;SDS011;55066;51.560;4.642;2024-02-14T01:31:37;17.88;;;7.00;;
68250;SDS011;55066;51.560;4.642;2024-02-14T01:34:06;17.58;;;7.47;;
68250;SDS011;55066;51.560;4.642;2024-02-14T01:36:31;17.35;;;7.20;;
68250;SDS011;55066;51.560;4.642;2024-02-14T01:39:01;14.05;;;6.35;;
68250;SDS011;55066;51.560;4.642;2024-02-14T01:41:35;15.20;;;6.32;;
68250;SDS011;55066;51.560;4.642;2024-02-14T01:44:03;15.80;;;7.23;;
68250;SDS011;55066;51.560;4.642;2024-02-14T01:46:36;17.35;;;7.40;;
68250;SDS011;55066;51.560;4.642;2024-02-14T01:49:03;14.38;;;7.00;;
68250;SDS011;55066;51.560;4.642;2024-02-14T01:51:30;13.05;;;6.43;;
68250;SDS011;55066;51.560;4.642;2024-02-14T01:53:59;15.95;;;5.88;;
68250;SDS011;55066;51.560;4.642;2024-02-14T01:56:25;15.00;;;6.70;;
68250;SDS011;55066;51.560;4.642;2024-02-14T01:58:53;14.80;;;7.20;;
68250;SDS011;55066;51.560;4.642;2024-02-14T02:01:20;16.27;;;6.93;;
68250;SDS011;55066;51.560;4.642;2024-02-14T02:03:49;15.10;;;6.90;;
68250;SDS011;55066;51.560;4.642;2024-02-14T02:06:16;21.17;;;6.63;;
68250;SDS011;55066;51.560;4.642;2024-02-14T02:08:46;19.73;;;7.57;;
68250;SDS011;55066;51.560;4.642;2024-02-14T02:11:18;16.27;;;6.65;;
68250;SDS011;55066;51.560;4.642;2024-02-14T02:13:48;18.05;;;7.68;;
68250;SDS011;55066;51.560;4.642;2024-02-14T02:16:15;17.73;;;7.47;;
68250;SDS011;55066;51.560;4.642;2024-02-14T02:18:44;17.13;;;7.60;;
68250;SDS011;55066;51.560;4.642;2024-02-14T02:21:10;15.98;;;7.22;;
68250;SDS011;55066;51.560;4.642;2024-02-14T02:23:38;13.88;;;6.38;;
68250;SDS011;55066;51.560;4.642;2024-02-14T02:26:07;15.13;;;6.47;;
68250;SDS011;55066;51.560;4.642;2024-02-14T02:28:35;17.13;;;7.65;;
68250;SDS011;55066;51.560;4.642;2024-02-14T02:31:01;16.90;;;7.88;;
68250;SDS011;55066;51.560;4.642;2024-02-14T02:33:27;15.75;;;7.45;;
68250;SDS011;55066;51.560;4.642;2024-02-14T02:35:56;20.02;;;7.63;;
68250;SDS011;55066;51.560;4.642;2024-02-14T02:38:23;17.10;;;6.53;;
68250;SDS011;55066;51.560;4.642;2024-02-14T02:40:58;20.13;;;6.95;;
68250;SDS011;55066;51.560;4.642;2024-02-14T02:43:27;16.83;;;7.22;;
68250;SDS011;55066;51.560;4.642;2024-02-14T02:45:54;16.58;;;6.80;;
68250;SDS011;55066;51.560;4.642;2024-02-14T02:48:19;16.90;;;6.28;;
68250;SDS011;55066;51.560;4.642;2024-02-14T02:50:49;21.20;;;6.93;;
68250;SDS011;55066;51.560;4.642;2024-02-14T02:53:16;17.38;;;7.32;;
68250;SDS011;55066;51.560;4.642;2024-02-14T02:55:49;16.77;;;6.93;;
68250;SDS011;55066;51.560;4.642;2024-02-14T02:58:17;18.83;;;7.07;;
68250;SDS011;55066;51.560;4.642;2024-02-14T03:00:46;13.80;;;6.28;;
68250;SDS011;55066;51.560;4.642;2024-02-14T03:03:14;19.23;;;7.90;;
68250;SDS011;55066;51.560;4.642;2024-02-14T03:05:42;18.90;;;6.65;;
68250;SDS011;55066;51.560;4.642;2024-02-14T03:08:12;15.70;;;7.43;;
68250;SDS011;55066;51.560;4.642;2024-02-14T03:10:42;18.75;;;7.28;;
68250;SDS011;55066;51.560;4.642;2024-02-14T03:13:07;20.75;;;7.18;;
68250;SDS011;55066;51.560;4.642;2024-02-14T03:15:39;20.57;;;7.63;;
68250;SDS011;55066;51.560;4.642;2024-02-14T03:18:05;19.65;;;6.95;;
68250;SDS011;55066;51.560;4.642;2024-02-14T03:20:34;18.20;;;7.68;;
68250;SDS011;55066;51.560;4.642;2024-02-14T03:23:02;19.30;;;7.60;;
68250;SDS011;55066;51.560;4.642;2024-02-14T03:25:31;17.75;;;7.50;;
68250;SDS011;55066;51.560;4.642;2024-02-14T03:27:57;18.80;;;6.40;;
68250;SDS011;55066;51.560;4.642;2024-02-14T03:30:34;18.15;;;6.80;;
68250;SDS011;55066;51.560;4.642;2024-02-14T03:33:07;13.25;;;5.78;;
68250;SDS011;55066;51.560;4.642;2024-02-14T03:35:34;15.90;;;6.65;;
68250;SDS011;55066;51.560;4.642;2024-02-14T03:38:03;16.58;;;6.78;;
68250;SDS011;55066;51.560;4.642;2024-02-14T03:40:36;17.13;;;6.77;;
68250;SDS011;55066;51.560;4.642;2024-02-14T03:43:04;16.25;;;6.97;;
68250;SDS011;55066;51.560;4.642;2024-02-14T03:45:37;17.13;;;7.10;;
68250;SDS011;55066;51.560;4.642;2024-02-14T03:48:06;17.10;;;6.97;;
68250;SDS011;55066;51.560;4.642;2024-02-14T03:50:35;17.45;;;7.10;;
68250;SDS011;55066;51.560;4.642;2024-02-14T03:53:00;18.90;;;6.83;;
68250;SDS011;55066;51.560;4.642;2024-02-14T03:55:40;16.55;;;6.40;;
68250;SDS011;55066;51.560;4.642;2024-02-14T03:58:09;15.90;;;6.72;;
68250;SDS011;55066;51.560;4.642;2024-02-14T04:00:37;12.55;;;5.57;;
68250;SDS011;55066;51.560;4.642;2024-02-14T04:03:03;18.10;;;7.47;;
68250;SDS011;55066;51.560;4.642;2024-02-14T04:05:29;12.20;;;6.13;;
68250;SDS011;55066;51.560;4.642;2024-02-14T04:07:54;16.77;;;5.83;;
68250;SDS011;55066;51.560;4.642;2024-02-14T04:10:20;13.57;;;5.95;;
68250;SDS011;55066;51.560;4.642;2024-02-14T04:12:47;14.83;;;6.03;;
68250;SDS011;55066;51.560;4.642;2024-02-14T04:15:13;13.90;;;5.95;;
68250;SDS011;55066;51.560;4.642;2024-02-14T04:17:41;14.25;;;6.10;;
68250;SDS011;55066;51.560;4.642;2024-02-14T04:20:10;11.88;;;5.22;;
68250;SDS011;55066;51.560;4.642;2024-02-14T04:22:39;12.93;;;5.82;;
68250;SDS011;55066;51.560;4.642;2024-02-14T04:25:07;13.97;;;6.27;;
68250;SDS011;55066;51.560;4.642;2024-02-14T04:27:34;13.13;;;5.97;;
68250;SDS011;55066;51.560;4.642;2024-02-14T04:30:01;13.38;;;5.68;;
68250;SDS011;55066;51.560;4.642;2024-02-14T04:32:31;15.73;;;6.72;;
68250;SDS011;55066;51.560;4.642;2024-02-14T04:35:12;15.93;;;7.03;;
68250;SDS011;55066;51.560;4.642;2024-02-14T04:37:43;13.63;;;6.00;;
68250;SDS011;55066;51.560;4.642;2024-02-14T04:40:12;16.00;;;6.47;;
68250;SDS011;55066;51.560;4.642;2024-02-14T04:42:40;17.40;;;6.80;;
68250;SDS011;55066;51.560;4.642;2024-02-14T04:45:09;16.05;;;6.97;;
68250;SDS011;55066;51.560;4.642;2024-02-14T04:47:38;16.27;;;6.28;;
68250;SDS011;55066;51.560;4.642;2024-02-14T04:50:04;18.63;;;6.47;;
68250;SDS011;55066;51.560;4.642;2024-02-14T04:52:30;15.40;;;5.97;;
68250;SDS011;55066;51.560;4.642;2024-02-14T04:55:21;13.93;;;6.73;;
68250;SDS011;55066;51.560;4.642;2024-02-14T04:57:46;20.52;;;7.18;;
68250;SDS011;55066;51.560;4.642;2024-02-14T05:00:13;16.45;;;6.47;;
68250;SDS011;55066;51.560;4.642;2024-02-14T05:02:40;13.27;;;6.30;;
68250;SDS011;55066;51.560;4.642;2024-02-14T05:05:06;13.85;;;6.22;;
68250;SDS011;55066;51.560;4.642;2024-02-14T05:07:35;14.20;;;6.50;;
68250;SDS011;55066;51.560;4.642;2024-02-14T05:10:02;14.93;;;6.47;;
68250;SDS011;55066;51.560;4.642;2024-02-14T05:12:28;16.63;;;7.00;;
68250;SDS011;55066;51.560;4.642;2024-02-14T05:14:57;13.43;;;6.45;;
68250;SDS011;55066;51.560;4.642;2024-02-14T05:17:24;14.98;;;6.88;;
68250;SDS011;55066;51.560;4.642;2024-02-14T05:19:50;15.30;;;7.03;;
68250;SDS011;55066;51.560;4.642;2024-02-14T05:22:17;14.53;;;5.43;;
68250;SDS011;55066;51.560;4.642;2024-02-14T05:24:43;15.23;;;6.65;;
68250;SDS011;55066;51.560;4.642;2024-02-14T05:27:10;16.10;;;7.37;;
68250;SDS011;55066;51.560;4.642;2024-02-14T05:29:36;14.00;;;6.32;;
68250;SDS011;55066;51.560;4.642;2024-02-14T05:32:02;13.05;;;6.10;;
68250;SDS011;55066;51.560;4.642;2024-02-14T05:34:29;16.65;;;7.63;;
68250;SDS011;55066;51.560;4.642;2024-02-14T05:36:55;18.77;;;7.33;;
68250;SDS011;55066;51.560;4.642;2024-02-14T05:39:21;20.67;;;7.75;;
68250;SDS011;55066;51.560;4.642;2024-02-14T05:41:48;18.60;;;7.85;;
68250;SDS011;55066;51.560;4.642;2024-02-14T05:44:20;20.52;;;9.10;;
68250;SDS011;55066;51.560;4.642;2024-02-14T05:46:49;21.27;;;8.38;;
68250;SDS011;55066;51.560;4.642;2024-02-14T05:49:15;19.70;;;7.75;;
68250;SDS011;55066;51.560;4.642;2024-02-14T05:51:42;20.08;;;8.77;;
68250;SDS011;55066;51.560;4.642;2024-02-14T05:54:10;22.27;;;8.82;;
68250;SDS011;55066;51.560;4.642;2024-02-14T05:56:37;21.83;;;8.52;;
68250;SDS011;55066;51.560;4.642;2024-02-14T05:59:03;19.20;;;7.53;;
68250;SDS011;55066;51.560;4.642;2024-02-14T06:01:29;21.35;;;8.18;;
68250;SDS011;55066;51.560;4.642;2024-02-14T06:03:56;16.27;;;7.93;;
68250;SDS011;55066;51.560;4.642;2024-02-14T06:06:23;17.00;;;7.25;;
68250;SDS011;55066;51.560;4.642;2024-02-14T06:08:50;19.92;;;8.95;;
68250;SDS011;55066;51.560;4.642;2024-02-14T06:11:18;22.45;;;8.50;;
68250;SDS011;55066;51.560;4.642;2024-02-14T06:13:47;24.27;;;9.00;;
68250;SDS011;55066;51.560;4.642;2024-02-14T06:16:13;18.43;;;7.87;;
68250;SDS011;55066;51.560;4.642;2024-02-14T06:18:40;21.63;;;8.05;;
68250;SDS011;55066;51.560;4.642;2024-02-14T06:21:07;24.75;;;8.73;;
68250;SDS011;55066;51.560;4.642;2024-02-14T06:23:37;21.25;;;7.85;;
68250;SDS011;55066;51.560;4.642;2024-02-14T06:26:04;22.35;;;8.80;;
68250;SDS011;55066;51.560;4.642;2024-02-14T06:28:31;21.95;;;8.13;;
68250;SDS011;55066;51.560;4.642;2024-02-14T06:31:00;21.77;;;9.00;;
68250;SDS011;55066;51.560;4.642;2024-02-14T06:33:28;23.27;;;8.48;;
68250;SDS011;55066;51.560;4.642;2024-02-14T06:35:58;21.38;;;8.77;;
68250;SDS011;55066;51.560;4.642;2024-02-14T06:38:24;22.35;;;9.02;;
68250;SDS011;55066;51.560;4.642;2024-02-14T06:40:50;21.02;;;9.07;;
68250;SDS011;55066;51.560;4.642;2024-02-14T06:43:17;19.85;;;8.65;;
68250;SDS011;55066;51.560;4.642;2024-02-14T06:45:46;18.48;;;7.00;;
68250;SDS011;55066;51.560;4.642;2024-02-14T06:48:12;21.05;;;8.57;;
68250;SDS011;55066;51.560;4.642;2024-02-14T06:50:41;19.80;;;8.05;;
68250;SDS011;55066;51.560;4.642;2024-02-14T06:53:08;20.23;;;8.47;;
68250;SDS011;55066;51.560;4.642;2024-02-14T06:55:34;19.13;;;8.25;;
68250;SDS011;55066;51.560;4.642;2024-02-14T06:58:01;18.65;;;8.70;;
68250;SDS011;55066;51.560;4.642;2024-02-14T07:00:27;16.90;;;7.40;;
68250;SDS011;55066;51.560;4.642;2024-02-14T07:02:56;26.15;;;8.80;;
68250;SDS011;55066;51.560;4.642;2024-02-14T07:05:23;22.73;;;9.00;;
68250;SDS011;55066;51.560;4.642;2024-02-14T07:07:55;22.85;;;8.80;;
68250;SDS011;55066;51.560;4.642;2024-02-14T07:10:24;20.73;;;8.67;;
68250;SDS011;55066;51.560;4.642;2024-02-14T07:12:52;20.20;;;7.78;;
68250;SDS011;55066;51.560;4.642;2024-02-14T07:15:21;22.13;;;8.35;;
68250;SDS011;55066;51.560;4.642;2024-02-14T07:17:46;25.08;;;7.60;;
68250;SDS011;55066;51.560;4.642;2024-02-14T07:20:12;20.65;;;7.57;;
68250;SDS011;55066;51.560;4.642;2024-02-14T07:22:38;20.07;;;7.40;;
68250;SDS011;55066;51.560;4.642;2024-02-14T07:25:06;24.00;;;7.68;;
68250;SDS011;55066;51.560;4.642;2024-02-14T07:27:33;20.00;;;7.80;;
68250;SDS011;55066;51.560;4.642;2024-02-14T07:30:01;18.93;;;7.17;;
68250;SDS011;55066;51.560;4.642;2024-02-14T07:32:27;19.42;;;7.18;;
68250;SDS011;55066;51.560;4.642;2024-02-14T07:35:01;23.98;;;8.13;;
68250;SDS011;55066;51.560;4.642;2024-02-14T07:37:28;20.85;;;8.35;;
68250;SDS011;55066;51.560;4.642;2024-02-14T07:39:56;22.23;;;8.27;;
68250;SDS011;55066;51.560;4.642;2024-02-14T07:42:22;24.47;;;7.87;;
68250;SDS011;55066;51.560;4.642;2024-02-14T07:44:48;18.90;;;6.80;;
68250;SDS011;55066;51.560;4.642;2024-02-14T07:47:15;24.92;;;7.47;;
68250;SDS011;55066;51.560;4.642;2024-02-14T07:49:42;21.45;;;7.80;;
68250;SDS011;55066;51.560;4.642;2024-02-14T07:52:07;24.90;;;8.05;;
68250;SDS011;55066;51.560;4.642;2024-02-14T07:54:33;22.23;;;7.70;;
68250;SDS011;55066;51.560;4.642;2024-02-14T07:57:00;19.25;;;7.68;;
68250;SDS011;55066;51.560;4.642;2024-02-14T07:59:26;19.38;;;7.57;;
68250;SDS011;55066;51.560;4.642;2024-02-14T08:01:54;19.67;;;7.25;;
68250;SDS011;55066;51.560;4.642;2024-02-14T08:04:24;21.77;;;7.75;;
68250;SDS011;55066;51.560;4.642;2024-02-14T08:06:49;19.73;;;8.18;;
68250;SDS011;55066;51.560;4.642;2024-02-14T08:09:16;20.38;;;7.53;;
68250;SDS011;55066;51.560;4.642;2024-02-14T08:11:42;22.10;;;8.85;;
68250;SDS011;55066;51.560;4.642;2024-02-14T08:14:11;18.15;;;7.60;;
68250;SDS011;55066;51.560;4.642;2024-02-14T08:16:39;17.85;;;7.70;;
68250;SDS011;55066;51.560;4.642;2024-02-14T08:19:06;17.42;;;6.35;;
68250;SDS011;55066;51.560;4.642;2024-02-14T08:21:32;22.17;;;8.23;;
68250;SDS011;55066;51.560;4.642;2024-02-14T08:23:58;22.60;;;7.47;;
68250;SDS011;55066;51.560;4.642;2024-02-14T08:26:24;23.08;;;7.57;;
68250;SDS011;55066;51.560;4.642;2024-02-14T08:28:49;23.07;;;7.87;;
68250;SDS011;55066;51.560;4.642;2024-02-14T08:31:15;17.70;;;7.32;;
68250;SDS011;55066;51.560;4.642;2024-02-14T08:33:47;17.42;;;7.55;;
68250;SDS011;55066;51.560;4.642;2024-02-14T08:36:16;20.45;;;7.40;;
68250;SDS011;55066;51.560;4.642;2024-02-14T08:38:44;22.58;;;8.07;;
68250;SDS011;55066;51.560;4.642;2024-02-14T08:41:10;16.63;;;7.10;;
68250;SDS011;55066;51.560;4.642;2024-02-14T08:43:38;21.95;;;8.02;;
68250;SDS011;55066;51.560;4.642;2024-02-14T08:46:08;20.00;;;7.18;;
68250;SDS011;55066;51.560;4.642;2024-02-14T08:48:39;15.17;;;6.93;;
68250;SDS011;55066;51.560;4.642;2024-02-14T08:51:12;16.38;;;6.68;;
68250;SDS011;55066;51.560;4.642;2024-02-14T08:53:38;16.40;;;7.45;;
68250;SDS011;55066;51.560;4.642;2024-02-14T08:56:05;18.42;;;6.72;;
68250;SDS011;55066;51.560;4.642;2024-02-14T08:58:34;14.93;;;6.55;;
68250;SDS011;55066;51.560;4.642;2024-02-14T09:01:05;19.42;;;7.18;;
68250;SDS011;55066;51.560;4.642;2024-02-14T09:03:34;14.98;;;6.90;;
68250;SDS011;55066;51.560;4.642;2024-02-14T09:06:01;12.30;;;5.28;;
68250;SDS011;55066;51.560;4.642;2024-02-14T09:08:29;16.05;;;6.80;;
68250;SDS011;55066;51.560;4.642;2024-02-14T09:10:57;21.17;;;6.78;;
68250;SDS011;55066;51.560;4.642;2024-02-14T09:13:26;16.00;;;6.40;;
68250;SDS011;55066;51.560;4.642;2024-02-14T09:15:53;18.08;;;7.03;;
68250;SDS011;55066;51.560;4.642;2024-02-14T09:18:20;14.80;;;6.18;;
68250;SDS011;55066;51.560;4.642;2024-02-14T09:20:51;15.32;;;6.22;;
68250;SDS011;55066;51.560;4.642;2024-02-14T09:23:19;15.43;;;5.97;;
68250;SDS011;55066;51.560;4.642;2024-02-14T09:25:47;11.70;;;4.95;;
68250;SDS011;55066;51.560;4.642;2024-02-14T09:28:15;15.13;;;5.72;;
68250;SDS011;55066;51.560;4.642;2024-02-14T09:30:42;12.95;;;5.72;;
68250;SDS011;55066;51.560;4.642;2024-02-14T09:33:07;13.73;;;5.40;;
68250;SDS011;55066;51.560;4.642;2024-02-14T09:35:37;15.20;;;6.15;;
68250;SDS011;55066;51.560;4.642;2024-02-14T09:38:05;14.90;;;5.90;;
68250;SDS011;55066;51.560;4.642;2024-02-14T09:40:31;21.45;;;6.32;;
68250;SDS011;55066;51.560;4.642;2024-02-14T09:42:58;14.18;;;6.63;;
68250;SDS011;55066;51.560;4.642;2024-02-14T09:45:28;13.75;;;5.20;;
68250;SDS011;55066;51.560;4.642;2024-02-14T09:48:08;15.57;;;7.03;;
68250;SDS011;55066;51.560;4.642;2024-02-14T09:50:36;17.38;;;7.40;;
68250;SDS011;55066;51.560;4.642;2024-02-14T09:53:05;18.63;;;8.27;;
68250;SDS011;55066;51.560;4.642;2024-02-14T09:55:33;19.17;;;7.32;;
68250;SDS011;55066;51.560;4.642;2024-02-14T09:58:00;14.80;;;7.22;;
68250;SDS011;55066;51.560;4.642;2024-02-14T10:00:29;18.40;;;7.30;;
68250;SDS011;55066;51.560;4.642;2024-02-14T10:03:03;18.83;;;7.70;;
68250;SDS011;55066;51.560;4.642;2024-02-14T10:05:31;18.15;;;7.63;;
68250;SDS011;55066;51.560;4.642;2024-02-14T10:07:59;21.02;;;6.65;;
68250;SDS011;55066;51.560;4.642;2024-02-14T10:10:28;15.77;;;6.75;;
68250;SDS011;55066;51.560;4.642;2024-02-14T10:13:04;18.60;;;6.70;;
68250;SDS011;55066;51.560;4.642;2024-02-14T10:15:33;18.13;;;7.88;;
68250;SDS011;55066;51.560;4.642;2024-02-14T10:18:04;21.42;;;7.38;;
68250;SDS011;55066;51.560;4.642;2024-02-14T10:20:33;18.27;;;7.38;;
68250;SDS011;55066;51.560;4.642;2024-02-14T10:23:11;17.38;;;8.57;;
68250;SDS011;55066;51.560;4.642;2024-02-14T10:25:37;19.40;;;9.10;;
68250;SDS011;55066;51.560;4.642;2024-02-14T10:28:06;21.35;;;8.57;;
68250;SDS011;55066;51.560;4.642;2024-02-14T10:30:34;19.85;;;8.32;;
68250;SDS011;55066;51.560;4.642;2024-02-14T10:33:03;21.98;;;8.60;;
68250;SDS011;55066;51.560;4.642;2024-02-14T10:35:30;21.13;;;9.43;;
68250;SDS011;55066;51.560;4.642;2024-02-14T10:37:58;19.27;;;8.32;;
68250;SDS011;55066;51.560;4.642;2024-02-14T10:40:28;25.90;;;9.68;;
68250;SDS011;55066;51.560;4.642;2024-02-14T10:42:54;18.90;;;8.80;;
68250;SDS011;55066;51.560;4.642;2024-02-14T10:45:24;19.25;;;8.38;;
68250;SDS011;55066;51.560;4.642;2024-02-14T10:47:52;21.80;;;9.15;;
68250;SDS011;55066;51.560;4.642;2024-02-14T10:50:24;21.77;;;9.80;;
68250;SDS011;55066;51.560;4.642;2024-02-14T10:52:57;19.73;;;9.32;;
68250;SDS011;55066;51.560;4.642;2024-02-14T10:55:27;22.95;;;9.50;;
68250;SDS011;55066;51.560;4.642;2024-02-14T10:57:57;20.50;;;8.85;;
68250;SDS011;55066;51.560;4.642;2024-02-14T11:00:23;22.50;;;8.85;;
68250;SDS011;55066;51.560;4.642;2024-02-14T11:02:50;21.23;;;8.70;;
68250;SDS011;55066;51.560;4.642;2024-02-14T11:05:19;20.50;;;9.43;;
68250;SDS011;55066;51.560;4.642;2024-02-14T11:08:07;18.52;;;8.45;;
68250;SDS011;55066;51.560;4.642;2024-02-14T11:10:36;18.20;;;8.10;;
68250;SDS011;55066;51.560;4.642;2024-02-14T11:13:04;18.20;;;8.38;;
68250;SDS011;55066;51.560;4.642;2024-02-14T11:15:35;18.70;;;8.20;;
68250;SDS011;55066;51.560;4.642;2024-02-14T11:18:05;17.75;;;7.80;;
68250;SDS011;55066;51.560;4.642;2024-02-14T11:20:32;17.20;;;7.90;;
68250;SDS011;55066;51.560;4.642;2024-02-14T11:23:03;18.48;;;8.10;;
68250;SDS011;55066;51.560;4.642;2024-02-14T11:25:39;18.98;;;8.00;;
68250;SDS011;55066;51.560;4.642;2024-02-14T11:28:18;18.45;;;7.68;;
68250;SDS011;55066;51.560;4.642;2024-02-14T11:30:49;18.48;;;7.32;;
68250;SDS011;55066;51.560;4.642;2024-02-14T11:33:24;15.33;;;6.30;;
68250;SDS011;55066;51.560;4.642;2024-02-14T11:35:51;16.92;;;7.68;;
68250;SDS011;55066;51.560;4.642;2024-02-14T11:38:21;15.30;;;6.63;;
68250;SDS011;55066;51.560;4.642;2024-02-14T11:40:49;17.65;;;6.57;;
68250;SDS011;55066;51.560;4.642;2024-02-14T11:43:21;17.63;;;6.63;;
68250;SDS011;55066;51.560;4.642;2024-02-14T11:45:47;14.60;;;6.43;;
68250;SDS011;55066;51.560;4.642;2024-02-14T11:48:15;15.38;;;6.53;;
68250;SDS011;55066;51.560;4.642;2024-02-14T11:50:44;12.05;;;6.05;;
68250;SDS011;55066;51.560;4.642;2024-02-14T11:53:16;13.00;;;5.67;;
68250;SDS011;55066;51.560;4.642;2024-02-14T11:55:45;17.27;;;5.60;;
68250;SDS011;55066;51.560;4.642;2024-02-14T11:58:17;11.88;;;6.10;;
68250;SDS011;55066;51.560;4.642;2024-02-14T12:00:43;10.88;;;5.68;;
68250;SDS011;55066;51.560;4.642;2024-02-14T12:03:19;10.57;;;5.30;;
68250;SDS011;55066;51.560;4.642;2024-02-14T12:05:52;9.63;;;4.93;;
68250;SDS011;55066;51.560;4.642;2024-02-14T12:08:18;8.80;;;4.43;;
68250;SDS011;55066;51.560;4.642;2024-02-14T12:10:46;9.85;;;4.97;;
68250;SDS011;55066;51.560;4.642;2024-02-14T12:13:24;10.88;;;4.72;;
68250;SDS011;55066;51.560;4.642;2024-02-14T12:15:57;10.15;;;4.75;;
68250;SDS011;55066;51.560;4.642;2024-02-14T12:18:27;9.17;;;4.10;;
68250;SDS011;55066;51.560;4.642;2024-02-14T12:21:04;10.63;;;4.70;;
68250;SDS011;55066;51.560;4.642;2024-02-14T12:23:38;9.65;;;4.57;;
68250;SDS011;55066;51.560;4.642;2024-02-14T12:26:05;11.55;;;4.65;;
68250;SDS011;55066;51.560;4.642;2024-02-14T12:28:45;9.93;;;4.78;;
68250;SDS011;55066;51.560;4.642;2024-02-14T12:31:21;11.33;;;5.03;;
68250;SDS011;55066;51.560;4.642;2024-02-14T12:33:50;10.98;;;5.03;;
68250;SDS011;55066;51.560;4.642;2024-02-14T12:36:21;10.88;;;4.80;;
68250;SDS011;55066;51.560;4.642;2024-02-14T12:38:47;11.25;;;4.65;;
68250;SDS011;55066;51.560;4.642;2024-02-14T12:41:13;12.10;;;4.93;;
68250;SDS011;55066;51.560;4.642;2024-02-14T12:43:39;13.18;;;5.32;;
68250;SDS011;55066;51.560;4.642;2024-02-14T12:46:05;13.88;;;5.80;;
68250;SDS011;55066;51.560;4.642;2024-02-14T12:48:37;15.43;;;5.93;;
68250;SDS011;55066;51.560;4.642;2024-02-14T12:51:07;15.00;;;6.15;;
68250;SDS011;55066;51.560;4.642;2024-02-14T12:53:34;14.90;;;5.35;;
68250;SDS011;55066;51.560;4.642;2024-02-14T12:55:59;14.30;;;6.07;;
68250;SDS011;55066;51.560;4.642;2024-02-14T12:58:25;17.97;;;5.80;;
68250;SDS011;55066;51.560;4.642;2024-02-14T13:00:51;13.50;;;5.47;;
68250;SDS011;55066;51.560;4.642;2024-02-14T13:03:17;15.80;;;6.00;;
68250;SDS011;55066;51.560;4.642;2024-02-14T13:05:44;15.35;;;5.93;;
68250;SDS011;55066;51.560;4.642;2024-02-14T13:08:10;12.48;;;5.60;;
68250;SDS011;55066;51.560;4.642;2024-02-14T13:10:38;15.05;;;5.90;;
68250;SDS011;55066;51.560;4.642;2024-02-14T13:13:04;18.70;;;5.97;;
68250;SDS011;55066;51.560;4.642;2024-02-14T13:15:30;18.87;;;5.50;;
68250;SDS011;55066;51.560;4.642;2024-02-14T13:17:57;12.27;;;5.53;;
68250;SDS011;55066;51.560;4.642;2024-02-14T13:20:24;13.90;;;5.45;;
68250;SDS011;55066;51.560;4.642;2024-02-14T13:22:53;13.48;;;5.15;;
68250;SDS011;55066;51.560;4.642;2024-02-14T13:25:21;12.63;;;5.50;;
68250;SDS011;55066;51.560;4.642;2024-02-14T13:28:04;11.73;;;5.20;;
68250;SDS011;55066;51.560;4.642;2024-02-14T13:30:31;14.23;;;4.85;;
68250;SDS011;55066;51.560;4.642;2024-02-14T13:33:00;11.65;;;4.72;;
68250;SDS011;55066;51.560;4.642;2024-02-14T13:35:26;9.83;;;4.50;;
68250;SDS011;55066;51.560;4.642;2024-02-14T13:37:52;9.65;;;4.30;;
68250;SDS011;55066;51.560;4.642;2024-02-14T13:40:18;9.38;;;4.28;;
68250;SDS011;55066;51.560;4.642;2024-02-14T13:42:45;11.88;;;4.60;;
68250;SDS011;55066;51.560;4.642;2024-02-14T13:45:12;10.07;;;3.97;;
68250;SDS011;55066;51.560;4.642;2024-02-14T13:47:39;8.70;;;4.15;;
68250;SDS011;55066;51.560;4.642;2024-02-14T13:50:07;9.88;;;4.28;;
68250;SDS011;55066;51.560;4.642;2024-02-14T13:52:35;8.63;;;3.97;;
68250;SDS011;55066;51.560;4.642;2024-02-14T13:55:02;7.47;;;3.88;;
68250;SDS011;55066;51.560;4.642;2024-02-14T13:57:35;9.40;;;3.95;;
68250;SDS011;55066;51.560;4.642;2024-02-14T14:00:08;9.43;;;4.07;;
68250;SDS011;55066;51.560;4.642;2024-02-14T14:02:42;8.35;;;3.80;;
68250;SDS011;55066;51.560;4.642;2024-02-14T14:05:10;8.65;;;3.17;;
68250;SDS011;55066;51.560;4.642;2024-02-14T14:07:37;7.82;;;3.70;;
68250;SDS011;55066;51.560;4.642;2024-02-14T14:10:04;9.45;;;3.50;;
68250;SDS011;55066;51.560;4.642;2024-02-14T14:12:31;8.70;;;3.80;;
68250;SDS011;55066;51.560;4.642;2024-02-14T14:14:56;9.82;;;3.65;;
68250;SDS011;55066;51.560;4.642;2024-02-14T14:17:23;10.27;;;3.40;;
68250;SDS011;55066;51.560;4.642;2024-02-14T14:19:48;9.13;;;4.30;;
68250;SDS011;55066;51.560;4.642;2024-02-14T14:22:14;7.90;;;3.77;;
68250;SDS011;55066;51.560;4.642;2024-02-14T14:24:41;10.05;;;4.00;;
68250;SDS011;55066;51.560;4.642;2024-02-14T14:27:07;11.45;;;4.40;;
68250;SDS011;55066;51.560;4.642;2024-02-14T14:29:39;7.35;;;3.85;;
68250;SDS011;55066;51.560;4.642;2024-02-14T14:32:25;9.30;;;3.88;;
68250;SDS011;55066;51.560;4.642;2024-02-14T14:34:51;9.45;;;4.18;;
68250;SDS011;55066;51.560;4.642;2024-02-14T14:37:26;8.65;;;4.10;;
68250;SDS011;55066;51.560;4.642;2024-02-14T14:39:53;8.32;;;4.13;;
68250;SDS011;55066;51.560;4.642;2024-02-14T14:42:20;6.50;;;3.17;;
68250;SDS011;55066;51.560;4.642;2024-02-14T14:44:46;9.27;;;4.07;;